KBURKNID

Guest
Details From KBUR - BOB HOPE
To KNID - China Lake Naws
Flight Number -
Tags generated
Created
Modified
Stats Distance 95 nm / 176 km
Max Altitude 6,900 ft / 2,103 m
Waypoints 3
Social Downloads 0
Likes 0
Share VATSIM

Download

Looking for another format? Having issues loading an existing format? Contact us
Advertisement - Login to hide

Notes

Basic altitude profile: - Ascent Rate: 1500ft/min - Ascent Speed: 140kts - Cruise Altitude: 6000ft - Cruise Speed: 170kts - Descent Rate: 1500ft/min - Descent Speed: 140kts Options: - Use NATs: yes - Use PACOTS: no - Use low airways: yes - Use high airways: no

Route

KBUR BOGET KNID

ID Type Via Altitude Latitude Longitude Leg Dist Tot Dist Heading (true) Name
O KBUR APT - 0 ft / 0 m 34.20048˚ -118.35877˚ - 0 nm - BOB HOPE
BOGET FIX - 6,900 ft / 2,103 m 34.51421˚ -118.25151˚ 19 nm 19 nm 16° / 16° -
O KNID APT - 0 ft / 0 m 35.68552˚ -117.69159˚ 75 nm 95 nm 21° / 22° China Lake Naws

Altitude Profile

Advertisement - Login to hide

KBUR

Details ICAO KBUR (BUR)
Name BOB HOPE
Region United States
Timezone America/Los_Angeles (UTC-8.0)
Stats Elevation 778 ft / 237 m (AMSL)
Location 34.200475° -118.358767°
Runways 2
Magnetic Variation 12.047° E

METAR

KBUR 112053Z VRB03KT 10SM CLR 26/M16 A3018 RMK AO2 SLP208 T02611156 58018

Decode

TAF

TAF KBUR 111734Z 1118/1218 00000KT P6SM SKC FM112000 18006KT P6SM SKC FM120400 VRB03KT P6SM SKC

Decode

Departure Runways

ID Width Length Bearing (true) Bearing (mag) Surface Threshold Offset Overrun Length
08 151 ft / 46 m 5,835 ft / 1,779 m 90.92° 78.87° Asphalt 0 ft / 0 m 259 ft / 79 m
15 151 ft / 46 m 6,962 ft / 2,122 m 167.12° 155.07° Asphalt 909 ft / 277 m 0 ft / 0 m
26 151 ft / 46 m 5,835 ft / 1,779 m 270.93° 258.88° Asphalt 0 ft / 0 m 253 ft / 77 m
33 151 ft / 46 m 6,962 ft / 2,122 m 347.12° 335.07° Asphalt 351 ft / 107 m 0 ft / 0 m

KNID

Details ICAO KNID (NID)
Name China Lake Naws
Region United States
Timezone America/Los_Angeles (UTC-8.0)
Stats Elevation 2,283 ft / 696 m (AMSL)
Location 35.685516° -117.691590°
Runways 3
Magnetic Variation 12.197° E

METAR

KNID 112056Z 00000KT 10SM FEW280 18/M20 A3032 RMK AO2 SLP269 T01781200 58022

Decode

TAF

TAF TAF KNID 1115/1215 VRB05KT 9999 FEW250 510009 QNH3028INS WND 12006KT AFT 1121 BECMG 1202/1204 21006KT 9999 SKC 500000 QNH3034INS T19/1123Z TM04/1214Z

Decode

Destination Runways

ID Width Length Bearing (true) Bearing (mag) Surface Threshold Offset Overrun Length
03 200 ft / 61 m 9,997 ft / 3,047 m 42.13° 29.93° Asphalt 0 ft / 0 m 1,000 ft / 305 m
08 200 ft / 61 m 7,687 ft / 2,343 m 90.78° 78.58° Asphalt 0 ft / 0 m 1,000 ft / 305 m
14 200 ft / 61 m 9,027 ft / 2,752 m 154.23° 142.03° Asphalt 0 ft / 0 m 1,000 ft / 305 m
21 200 ft / 61 m 9,997 ft / 3,047 m 222.15° 209.95° Asphalt 0 ft / 0 m 1,000 ft / 305 m
26 200 ft / 61 m 7,687 ft / 2,343 m 270.79° 258.59° Asphalt 0 ft / 0 m 1,000 ft / 305 m
32 200 ft / 61 m 9,027 ft / 2,752 m 334.24° 322.04° Asphalt 0 ft / 0 m 1,000 ft / 305 m

Popular Alternatives